Time;durP1;ratioP1;P1;durP2;ratioP2;P2;SDS_P1;SDS_P2;PMS_P1;PMS_P2;Temp;Humidity;BMP_temperature;BMP_pressure;BME280_temperature;BME280_humidity;BME280_pressure;Samples;Min_cycle;Max_cycle;Signal;HPM_P1;HPM_P2
2023/08/19 00:00:17;;;;;;;8.68;7.60;;;21.40;99.90;;;;;;5038573;28;20301;-68
2023/08/19 00:02:44;;;;;;;9.82;7.13;;;21.40;99.90;;;;;;5020187;28;20608;-68
2023/08/19 00:05:12;;;;;;;10.63;8.00;;;21.40;99.90;;;;;;5047437;28;20200;-68
2023/08/19 00:07:40;;;;;;;8.63;7.45;;;21.40;99.90;;;;;;5038423;28;20205;-68
2023/08/19 00:10:08;;;;;;;9.25;6.68;;;21.40;99.90;;;;;;5004755;28;20693;-68
2023/08/19 00:12:35;;;;;;;9.15;7.35;;;21.40;99.90;;;;;;5025425;28;20197;-68
2023/08/19 00:15:02;;;;;;;11.63;7.63;;;21.30;99.90;;;;;;5038496;28;20209;-68
2023/08/19 00:17:30;;;;;;;12.73;7.28;;;21.30;99.90;;;;;;5029097;28;20603;-68
2023/08/19 00:19:57;;;;;;;8.80;7.60;;;21.30;99.90;;;;;;5038798;28;20208;-68
2023/08/19 00:22:23;;;;;;;8.10;7.22;;;21.30;99.90;;;;;;5035725;28;20196;-68
2023/08/19 00:24:52;;;;;;;8.98;6.88;;;21.30;99.90;;;;;;5004140;28;20982;-68
2023/08/19 00:27:18;;;;;;;9.18;7.60;;;21.30;99.90;;;;;;5035465;28;20201;-68
2023/08/19 00:29:45;;;;;;;7.60;6.78;;;21.30;99.90;;;;;;5037156;28;20228;-68
2023/08/19 00:32:12;;;;;;;8.40;7.00;;;21.30;99.90;;;;;;5043384;28;20706;-68
2023/08/19 00:34:39;;;;;;;8.82;7.00;;;21.30;99.90;;;;;;5031610;28;20209;-68
2023/08/19 00:37:07;;;;;;;7.90;6.85;;;21.30;99.90;;;;;;5039415;28;20197;-68
2023/08/19 00:39:33;;;;;;;7.82;6.95;;;21.30;99.90;;;;;;4994411;28;21240;-68
2023/08/19 00:42:02;;;;;;;7.97;7.07;;;21.30;99.90;;;;;;5040159;28;20193;-68
2023/08/19 00:44:30;;;;;;;8.55;7.13;;;21.30;99.90;;;;;;5020434;28;20609;-68
2023/08/19 00:46:58;;;;;;;13.57;7.07;;;21.40;99.90;;;;;;5036344;28;20623;-68
2023/08/19 00:49:25;;;;;;;10.23;7.43;;;21.40;99.90;;;;;;5026314;28;20204;-68
2023/08/19 00:51:52;;;;;;;9.73;7.93;;;21.30;99.90;;;;;;5042160;28;20193;-68
2023/08/19 00:54:18;;;;;;;8.95;7.50;;;21.30;99.90;;;;;;5040205;28;20209;-68
2023/08/19 00:56:45;;;;;;;11.60;7.68;;;21.40;99.90;;;;;;5005899;28;20728;-68
2023/08/19 00:59:14;;;;;;;8.48;7.63;;;21.30;99.90;;;;;;5031736;28;20653;-68
2023/08/19 01:01:41;;;;;;;12.52;7.93;;;21.30;99.90;;;;;;5036745;28;20202;-68
2023/08/19 01:04:08;;;;;;;9.95;7.20;;;21.30;99.90;;;;;;5042888;28;20830;-68
2023/08/19 01:06:44;;;;;;;14.20;8.60;;;22.90;99.90;;;;;;5028659;28;20209;-68
2023/08/19 01:09:24;;;;;;;9.73;7.65;;;21.30;99.90;;;;;;5045281;28;20616;-68
2023/08/19 01:12:02;;;;;;;9.93;8.23;;;21.30;99.90;;;;;;5008803;28;20205;-68
2023/08/19 01:14:40;;;;;;;10.48;7.70;;;21.30;99.90;;;;;;5030690;28;20201;-68
2023/08/19 01:17:10;;;;;;;12.13;9.20;;;21.30;99.90;;;;;;5043285;28;20193;-68
2023/08/19 01:19:38;;;;;;;8.95;8.05;;;21.30;99.90;;;;;;5037190;28;20819;-68
2023/08/19 01:22:07;;;;;;;11.68;9.13;;;21.30;99.90;;;;;;5031079;28;20208;-68
2023/08/19 01:24:39;;;;;;;11.35;9.20;;;21.40;99.90;;;;;;5037310;28;20226;-68
2023/08/19 01:27:08;;;;;;;14.50;9.55;;;21.40;99.90;;;;;;5003650;28;20305;-68
2023/08/19 01:29:34;;;;;;;10.48;9.38;;;21.20;99.90;;;;;;5025392;28;21337;-68
2023/08/19 01:32:03;;;;;;;9.93;8.88;;;21.50;99.90;;;;;;5037385;28;20224;-68
2023/08/19 01:34:29;;;;;;;13.02;10.07;;;21.50;99.90;;;;;;5033072;28;20616;-68
2023/08/19 01:37:02;;;;;;;11.05;9.95;;;21.40;99.90;;;;;;5031552;28;20288;-68
2023/08/19 01:39:30;;;;;;;11.07;9.32;;;21.50;99.90;;;;;;5034290;28;20212;-68
2023/08/19 01:41:59;;;;;;;11.50;10.15;;;21.40;99.90;;;;;;5002855;28;20681;-68
2023/08/19 01:44:26;;;;;;;11.65;9.98;;;21.40;99.90;;;;;;5026303;28;20201;-68
2023/08/19 01:46:53;;;;;;;14.23;9.88;;;21.40;99.90;;;;;;5037442;28;20223;-68
2023/08/19 01:49:20;;;;;;;11.80;10.35;;;21.50;99.90;;;;;;5033610;28;20648;-68
2023/08/19 01:51:46;;;;;;;10.95;9.85;;;21.50;99.90;;;;;;5026156;28;20973;-68
2023/08/19 01:54:13;;;;;;;13.90;9.57;;;21.50;99.90;;;;;;5038239;28;20204;-68
2023/08/19 01:56:40;;;;;;;13.57;10.20;;;19.70;99.90;;;;;;5032397;28;20413;-68
2023/08/19 01:59:08;;;;;;;12.25;10.85;;;21.40;99.90;;;;;;5002958;28;20205;-68
2023/08/19 02:01:35;;;;;;;11.23;10.10;;;21.50;99.90;;;;;;5019683;28;20228;-68
2023/08/19 02:04:02;;;;;;;11.70;10.40;;;21.40;99.90;;;;;;5040313;28;20189;-68
2023/08/19 02:06:29;;;;;;;11.63;10.27;;;21.50;99.90;;;;;;5025491;28;20326;-68
2023/08/19 02:08:56;;;;;;;11.52;10.10;;;21.40;99.90;;;;;;5038504;28;20291;-68
2023/08/19 02:11:23;;;;;;;13.85;11.25;;;21.40;99.90;;;;;;5036511;28;20220;-68
2023/08/19 02:13:50;;;;;;;16.15;10.82;;;21.40;99.90;;;;;;5007742;28;20211;-68
2023/08/19 02:16:18;;;;;;;15.13;11.13;;;21.40;99.90;;;;;;5039571;28;20197;-68
2023/08/19 02:18:45;;;;;;;14.30;11.00;;;21.30;99.90;;;;;;5037845;28;20417;-68
2023/08/19 02:21:11;;;;;;;12.50;10.23;;;21.30;99.90;;;;;;5044971;28;20578;-68
2023/08/19 02:23:38;;;;;;;12.25;10.93;;;21.30;99.90;;;;;;5029624;28;20197;-68
2023/08/19 02:26:05;;;;;;;12.05;10.75;;;21.30;99.90;;;;;;5040473;28;20741;-68
2023/08/19 02:28:32;;;;;;;13.40;10.63;;;21.30;99.90;;;;;;5034094;28;20204;-68
2023/08/19 02:31:02;;;;;;;11.75;10.55;;;21.30;99.90;;;;;;4997417;28;20225;-68
2023/08/19 02:33:31;;;;;;;13.13;11.68;;;21.20;99.90;;;;;;5026177;28;20208;-68
2023/08/19 02:35:58;;;;;;;12.63;11.38;;;21.20;99.90;;;;;;5039333;28;20197;-68
2023/08/19 02:38:24;;;;;;;14.15;11.65;;;21.20;99.90;;;;;;5031484;28;20854;-68
2023/08/19 02:40:52;;;;;;;13.65;12.10;;;21.20;99.90;;;;;;5040154;28;20576;-68
2023/08/19 02:43:19;;;;;;;12.82;11.52;;;21.10;99.90;;;;;;5045607;28;20197;-68
2023/08/19 02:45:47;;;;;;;13.05;10.93;;;21.10;99.90;;;;;;5003692;28;21094;-67
2023/08/19 02:48:14;;;;;;;14.93;11.52;;;21.20;99.90;;;;;;5042539;28;20203;-69
2023/08/19 02:50:42;;;;;;;14.68;10.52;;;21.20;99.90;;;;;;5035696;28;20232;-69
2023/08/19 02:53:09;;;;;;;15.57;12.07;;;21.10;99.90;;;;;;5047810;28;20199;-69
2023/08/19 02:55:40;;;;;;;14.98;12.32;;;21.10;99.90;;;;;;5035646;28;20209;-69
2023/08/19 02:58:07;;;;;;;14.30;12.05;;;21.10;99.90;;;;;;5050959;28;20640;-68
2023/08/19 03:00:36;;;;;;;13.43;12.02;;;21.10;99.90;;;;;;5038473;28;20220;-69
2023/08/19 03:03:05;;;;;;;14.07;12.57;;;21.00;99.90;;;;;;5008033;28;20209;-69
2023/08/19 03:05:35;;;;;;;14.93;11.43;;;21.10;99.90;;;;;;5029204;28;20379;-69
2023/08/19 03:08:04;;;;;;;14.32;12.82;;;21.10;99.90;;;;;;5047936;28;20197;-69
2023/08/19 03:10:33;;;;;;;13.65;11.65;;;21.00;99.90;;;;;;5030634;28;20764;-69
2023/08/19 03:13:00;;;;;;;15.52;12.65;;;21.10;99.90;;;;;;5045287;28;20197;-68
2023/08/19 03:15:26;;;;;;;15.98;11.38;;;21.00;99.90;;;;;;5038602;28;20202;-69
2023/08/19 03:17:53;;;;;;;15.95;11.73;;;21.00;99.90;;;;;;5010757;28;20585;-69
2023/08/19 03:20:20;;;;;;;13.45;12.18;;;21.00;99.90;;;;;;5041480;28;20212;-69
2023/08/19 03:22:47;;;;;;;14.40;11.75;;;21.00;99.90;;;;;;5037477;28;20504;-69
2023/08/19 03:25:16;;;;;;;14.32;11.82;;;21.00;99.90;;;;;;5042219;28;20229;-69
2023/08/19 03:27:43;;;;;;;15.05;13.52;;;20.90;99.90;;;;;;5029810;28;20201;-69
2023/08/19 03:30:10;;;;;;;13.52;12.13;;;20.90;99.90;;;;;;5044146;28;20212;-69
2023/08/19 03:32:37;;;;;;;14.27;12.43;;;21.00;99.90;;;;;;4991887;28;20796;-68
2023/08/19 03:35:05;;;;;;;17.17;13.25;;;21.00;99.90;;;;;;5040536;28;20515;-68
2023/08/19 03:37:32;;;;;;;13.80;12.30;;;20.90;99.90;;;;;;5029733;28;20204;-68
2023/08/19 03:39:59;;;;;;;13.73;12.32;;;20.90;99.90;;;;;;5036994;28;20332;-68
2023/08/19 03:42:27;;;;;;;14.13;12.50;;;20.90;99.90;;;;;;5031299;28;20224;-68
2023/08/19 03:44:54;;;;;;;14.95;13.02;;;21.00;99.90;;;;;;5040164;28;20404;-68
2023/08/19 03:47:20;;;;;;;13.85;11.88;;;20.90;99.90;;;;;;4996463;28;20200;-68
2023/08/19 03:49:47;;;;;;;16.55;12.80;;;21.00;99.90;;;;;;5033206;28;22153;-68
2023/08/19 03:52:14;;;;;;;15.52;12.25;;;20.90;99.90;;;;;;5027689;28;20245;-68
2023/08/19 03:54:41;;;;;;;16.83;13.10;;;21.00;99.90;;;;;;5035846;28;20208;-68
2023/08/19 03:57:08;;;;;;;19.08;13.25;;;21.00;99.90;;;;;;5024488;28;20513;-68
2023/08/19 03:59:36;;;;;;;17.55;12.93;;;21.00;99.90;;;;;;5044714;28;20213;-68
2023/08/19 04:02:03;;;;;;;15.63;13.07;;;20.90;99.90;;;;;;5027228;28;20309;-68
2023/08/19 04:04:30;;;;;;;13.82;12.27;;;21.00;99.90;;;;;;4998352;28;20570;-68
2023/08/19 04:06:56;;;;;;;21.30;13.65;;;20.90;99.90;;;;;;5021421;28;20231;-68
2023/08/19 04:09:23;;;;;;;15.38;13.40;;;20.90;99.90;;;;;;5037469;28;20193;-68
2023/08/19 04:11:51;;;;;;;15.65;14.07;;;20.90;99.90;;;;;;5023586;28;20858;-68
2023/08/19 04:14:18;;;;;;;17.42;13.52;;;20.90;99.90;;;;;;5030474;28;20201;-68
2023/08/19 04:16:46;;;;;;;14.63;13.05;;;20.90;99.90;;;;;;5030310;28;20197;-68
2023/08/19 04:19:13;;;;;;;14.50;12.85;;;20.90;99.90;;;;;;5006224;28;20823;-68
2023/08/19 04:21:40;;;;;;;15.38;12.95;;;20.80;99.90;;;;;;5033791;28;20198;-68
2023/08/19 04:24:07;;;;;;;15.88;13.40;;;20.90;99.90;;;;;;5036044;28;20205;-68
2023/08/19 04:26:34;;;;;;;17.00;13.15;;;20.90;99.90;;;;;;5040032;28;20193;-68
2023/08/19 04:29:01;;;;;;;15.30;13.38;;;20.90;99.90;;;;;;5028456;28;20448;-68
2023/08/19 04:31:28;;;;;;;20.05;13.77;;;20.90;99.90;;;;;;5034738;28;20356;-68
2023/08/19 04:33:56;;;;;;;17.10;14.50;;;20.90;99.90;;;;;;4992588;28;20318;-68
2023/08/19 04:36:23;;;;;;;18.48;14.60;;;21.00;99.90;;;;;;5041096;28;20426;-68
2023/08/19 04:38:50;;;;;;;15.65;14.05;;;20.90;99.90;;;;;;5026804;28;20293;-68
2023/08/19 04:41:17;;;;;;;21.25;14.35;;;20.90;99.90;;;;;;5037385;28;20198;-68
2023/08/19 04:43:45;;;;;;;19.10;14.50;;;20.90;99.90;;;;;;5038936;28;20197;-68
2023/08/19 04:46:12;;;;;;;17.63;13.85;;;20.90;99.90;;;;;;5031573;28;20197;-68
2023/08/19 04:48:39;;;;;;;15.73;13.80;;;21.00;99.90;;;;;;5003862;28;20206;-68
2023/08/19 04:51:08;;;;;;;15.30;13.38;;;20.90;99.90;;;;;;5036780;28;20233;-68
2023/08/19 04:53:35;;;;;;;19.40;15.13;;;20.90;99.90;;;;;;5035851;28;20287;-68
2023/08/19 04:56:03;;;;;;;17.80;14.75;;;21.00;99.90;;;;;;5042286;28;20212;-68
2023/08/19 04:58:30;;;;;;;17.55;13.82;;;21.00;99.90;;;;;;5036316;28;20746;-68
2023/08/19 05:00:57;;;;;;;17.60;13.73;;;21.00;99.90;;;;;;5030546;28;20300;-69
2023/08/19 05:03:24;;;;;;;16.85;14.07;;;21.10;99.90;;;;;;5037794;28;20405;-68
2023/08/19 05:05:51;;;;;;;22.17;14.80;;;21.10;99.90;;;;;;5002802;28;20201;-68
2023/08/19 05:08:19;;;;;;;16.73;14.50;;;21.10;99.90;;;;;;5026394;28;20201;-68
2023/08/19 05:10:46;;;;;;;16.15;13.70;;;21.30;99.90;;;;;;5040091;28;20204;-68
2023/08/19 05:13:13;;;;;;;21.42;14.77;;;21.10;99.90;;;;;;5033043;28;20194;-68
2023/08/19 05:15:39;;;;;;;15.43;13.75;;;21.30;99.90;;;;;;5042250;28;20660;-68
2023/08/19 05:18:06;;;;;;;16.33;14.63;;;21.20;99.90;;;;;;5029853;28;20210;-68
2023/08/19 05:20:33;;;;;;;16.65;14.65;;;21.20;99.90;;;;;;5005226;28;20228;-68
2023/08/19 05:23:00;;;;;;;16.63;14.45;;;21.20;99.90;;;;;;5028946;28;20216;-68
2023/08/19 05:25:29;;;;;;;17.33;13.77;;;21.20;99.90;;;;;;5041537;28;20757;-68
2023/08/19 05:27:57;;;;;;;18.58;14.23;;;21.30;99.90;;;;;;5043159;28;20442;-68
2023/08/19 05:30:24;;;;;;;18.80;14.50;;;21.30;99.90;;;;;;5036291;28;20480;-68
2023/08/19 05:32:51;;;;;;;15.63;13.95;;;21.30;99.90;;;;;;5033048;28;20232;-68
2023/08/19 05:35:18;;;;;;;18.95;14.30;;;21.40;99.90;;;;;;5034616;28;20405;-68
2023/08/19 05:37:45;;;;;;;16.55;14.18;;;21.40;99.90;;;;;;4992629;28;20381;-68
2023/08/19 05:40:11;;;;;;;19.05;14.50;;;21.40;99.90;;;;;;5021936;28;20300;-68
2023/08/19 05:42:40;;;;;;;18.50;14.27;;;21.40;99.90;;;;;;5026981;28;20860;-68
2023/08/19 05:45:07;;;;;;;14.88;13.27;;;21.50;99.90;;;;;;5037636;28;20196;-68
2023/08/19 05:47:34;;;;;;;16.77;14.35;;;21.50;99.90;;;;;;5035767;28;20211;-68
2023/08/19 05:50:01;;;;;;;16.35;14.02;;;21.70;99.90;;;;;;5031135;28;20227;-68
2023/08/19 05:52:28;;;;;;;17.55;14.85;;;21.50;99.90;;;;;;5001877;28;21014;-68
2023/08/19 05:54:55;;;;;;;17.95;15.25;;;21.50;99.90;;;;;;5033212;28;20212;-68
2023/08/19 05:57:21;;;;;;;19.77;14.93;;;21.60;99.90;;;;;;5028065;28;20918;-68
2023/08/19 05:59:50;;;;;;;16.88;14.15;;;21.10;99.90;;;;;;5041025;28;20223;-68
2023/08/19 06:02:17;;;;;;;17.00;14.95;;;21.70;99.90;;;;;;5040482;28;20289;-68
2023/08/19 06:04:43;;;;;;;17.65;14.55;;;21.70;99.90;;;;;;5032209;28;20198;-68
2023/08/19 06:07:11;;;;;;;15.88;14.25;;;21.70;99.90;;;;;;5042113;28;20223;-68
2023/08/19 06:09:37;;;;;;;17.73;14.93;;;21.80;99.90;;;;;;4992166;28;20212;-68
2023/08/19 06:12:05;;;;;;;16.65;14.27;;;21.80;99.90;;;;;;5038086;28;20227;-68
2023/08/19 06:14:32;;;;;;;16.83;15.02;;;21.90;99.90;;;;;;5031208;28;20192;-68
2023/08/19 06:17:00;;;;;;;18.55;16.20;;;21.90;99.90;;;;;;5037171;28;20201;-68
2023/08/19 06:19:27;;;;;;;16.55;14.82;;;21.90;99.90;;;;;;5030295;28;20329;-68
2023/08/19 06:21:54;;;;;;;23.60;15.95;;;22.00;99.90;;;;;;5035421;28;20224;-68
2023/08/19 06:24:21;;;;;;;17.17;15.30;;;22.00;99.90;;;;;;5001360;28;20833;-68
2023/08/19 06:26:48;;;;;;;17.25;15.32;;;22.00;99.90;;;;;;5043070;28;20287;-68
2023/08/19 06:29:14;;;;;;;18.17;14.82;;;22.00;99.90;;;;;;5035473;28;20512;-68
2023/08/19 06:31:42;;;;;;;18.95;16.00;;;22.10;99.90;;;;;;5032908;28;20217;-68
2023/08/19 06:34:11;;;;;;;19.45;16.08;;;22.10;99.90;;;;;;5031531;28;20216;-68
2023/08/19 06:36:41;;;;;;;19.25;14.57;;;22.10;99.90;;;;;;5030031;28;20197;-68
2023/08/19 06:39:13;;;;;;;18.17;14.85;;;22.20;99.90;;;;;;5038615;28;20277;-68
2023/08/19 06:41:42;;;;;;;17.90;15.40;;;22.20;99.90;;;;;;5001076;28;20204;-68
2023/08/19 06:44:10;;;;;;;20.08;15.30;;;22.20;99.90;;;;;;5038942;28;20197;-68
2023/08/19 06:46:38;;;;;;;18.45;15.40;;;22.20;99.90;;;;;;5040923;28;20207;-68
2023/08/19 06:49:05;;;;;;;18.20;15.13;;;22.30;99.90;;;;;;5039804;28;20255;-69
2023/08/19 06:51:34;;;;;;;16.73;14.88;;;22.30;99.90;;;;;;5031862;28;20221;-68
2023/08/19 06:54:01;;;;;;;19.15;15.70;;;22.30;99.90;;;;;;5044154;28;20201;-68
2023/08/19 06:56:33;;;;;;;18.42;15.30;;;22.40;99.90;;;;;;5005064;28;20213;-68
2023/08/19 06:59:06;;;;;;;18.35;15.93;;;22.50;99.90;;;;;;5036249;28;20579;-68
2023/08/19 07:01:36;;;;;;;16.35;14.65;;;22.40;99.90;;;;;;5034988;28;20205;-68
2023/08/19 07:04:04;;;;;;;17.52;14.75;;;22.50;99.90;;;;;;5038194;28;20292;-68
2023/08/19 07:06:35;;;;;;;18.98;14.65;;;22.50;99.90;;;;;;5034073;28;20201;-68
2023/08/19 07:09:05;;;;;;;18.27;14.98;;;22.50;99.90;;;;;;5040997;28;20200;-68
2023/08/19 07:11:33;;;;;;;17.92;14.50;;;22.60;99.90;;;;;;5002884;28;20205;-69
2023/08/19 07:14:00;;;;;;;17.50;14.10;;;22.60;99.90;;;;;;5040720;28;20201;-68
2023/08/19 07:16:28;;;;;;;18.90;14.80;;;22.60;99.90;;;;;;5037023;28;20197;-68
2023/08/19 07:18:57;;;;;;;15.88;14.20;;;22.60;99.90;;;;;;5041602;28;20205;-68
2023/08/19 07:21:25;;;;;;;15.70;13.57;;;22.70;99.90;;;;;;5025833;28;20545;-68
2023/08/19 07:23:57;;;;;;;18.77;15.00;;;22.60;99.90;;;;;;5036114;28;20208;-68
2023/08/19 07:26:26;;;;;;;19.77;14.75;;;22.70;99.90;;;;;;5039164;28;20205;-68
2023/08/19 07:28:54;;;;;;;19.80;14.35;;;22.70;99.90;;;;;;5006108;28;20205;-68
2023/08/19 07:31:22;;;;;;;16.67;13.95;;;22.80;99.90;;;;;;5033756;28;20376;-68
2023/08/19 07:33:49;;;;;;;19.10;13.75;;;22.80;99.90;;;;;;5043047;28;20207;-68
2023/08/19 07:36:16;;;;;;;16.10;13.35;;;22.90;99.90;;;;;;5028558;28;20201;-68
2023/08/19 07:38:43;;;;;;;18.48;13.95;;;22.90;99.90;;;;;;5044474;28;20197;-68
2023/08/19 07:41:11;;;;;;;17.10;14.00;;;23.00;99.90;;;;;;5038036;28;20579;-68
2023/08/19 07:43:39;;;;;;;16.08;13.82;;;23.00;99.90;;;;;;5003284;28;20694;-68
2023/08/19 07:46:07;;;;;;;20.45;14.05;;;23.10;99.90;;;;;;5040749;28;20221;-68
2023/08/19 07:48:33;;;;;;;17.88;13.88;;;23.20;99.90;;;;;;5042326;28;20665;-68
2023/08/19 07:51:00;;;;;;;16.17;13.70;;;23.20;99.90;;;;;;5038872;28;20192;-69
2023/08/19 07:53:27;;;;;;;15.00;13.23;;;23.20;99.90;;;;;;5032613;28;20736;-68
2023/08/19 07:55:54;;;;;;;18.00;14.48;;;23.20;99.90;;;;;;5045689;28;20200;-68
2023/08/19 07:58:22;;;;;;;18.20;13.55;;;23.10;99.90;;;;;;5011215;28;20205;-68
2023/08/19 08:00:49;;;;;;;15.13;13.18;;;23.10;99.90;;;;;;5027152;28;20193;-68
2023/08/19 08:03:16;;;;;;;16.60;13.55;;;23.10;99.90;;;;;;5027715;28;20208;-68
2023/08/19 08:05:42;;;;;;;18.77;12.90;;;23.10;99.90;;;;;;5037815;28;21751;-68
2023/08/19 08:08:09;;;;;;;17.50;13.98;;;23.10;99.90;;;;;;5021019;28;20512;-68
2023/08/19 08:10:36;;;;;;;14.90;13.30;;;23.10;99.90;;;;;;5043457;28;20574;-68
2023/08/19 08:13:03;;;;;;;15.35;13.55;;;23.30;99.90;;;;;;5041500;28;20628;-68
2023/08/19 08:15:31;;;;;;;17.40;12.52;;;23.30;99.90;;;;;;5006474;28;20209;-68
2023/08/19 08:17:58;;;;;;;15.57;13.15;;;23.40;99.90;;;;;;5040434;28;22121;-68
2023/08/19 08:20:25;;;;;;;14.52;12.35;;;23.50;99.90;;;;;;5041568;28;20203;-68
2023/08/19 08:22:52;;;;;;;19.77;12.93;;;23.50;99.90;;;;;;5027855;28;20207;-68
2023/08/19 08:25:19;;;;;;;15.88;12.60;;;23.60;99.90;;;;;;5034966;28;20863;-68
2023/08/19 08:27:46;;;;;;;15.55;12.80;;;23.60;99.90;;;;;;5044047;28;20201;-68
2023/08/19 08:30:13;;;;;;;13.88;12.13;;;23.60;99.90;;;;;;5003670;28;20947;-69
2023/08/19 08:32:41;;;;;;;13.80;12.40;;;23.60;99.90;;;;;;5041276;28;20220;-68
2023/08/19 08:35:08;;;;;;;14.07;12.65;;;23.80;99.90;;;;;;5035143;28;21054;-68
2023/08/19 08:37:35;;;;;;;15.93;13.10;;;23.80;99.90;;;;;;5033147;28;20197;-68
2023/08/19 08:40:02;;;;;;;13.98;11.68;;;23.90;99.90;;;;;;5028547;28;20205;-69
2023/08/19 08:42:30;;;;;;;14.00;11.77;;;24.10;99.90;;;;;;5034272;28;20225;-68
2023/08/19 08:44:58;;;;;;;13.50;11.60;;;24.00;99.90;;;;;;5038971;28;20208;-68
2023/08/19 08:47:26;;;;;;;13.70;12.30;;;24.10;99.90;;;;;;5002767;28;20213;-68
2023/08/19 08:49:56;;;;;;;13.57;12.07;;;24.20;99.90;;;;;;5033995;28;20217;-69
2023/08/19 08:52:22;;;;;;;14.23;11.60;;;24.20;99.90;;;;;;5015024;28;20602;-68
2023/08/19 08:54:52;;;;;;;12.02;10.77;;;24.30;99.90;;;;;;5028347;28;20811;-68
2023/08/19 08:57:19;;;;;;;13.50;10.98;;;24.30;99.90;;;;;;5021922;28;20847;-69
2023/08/19 08:59:45;;;;;;;13.13;11.20;;;24.30;99.90;;;;;;5035953;28;20213;-69
2023/08/19 09:02:13;;;;;;;13.35;11.65;;;24.30;99.90;;;;;;4995833;28;21784;-68
2023/08/19 09:04:43;;;;;;;12.45;11.07;;;24.30;99.90;;;;;;5039547;28;20500;-68
2023/08/19 09:07:15;;;;;;;12.18;10.30;;;24.30;99.90;;;;;;5040645;28;20203;-68
2023/08/19 09:09:44;;;;;;;14.18;11.30;;;24.30;99.90;;;;;;5030824;28;20671;-68
2023/08/19 09:12:12;;;;;;;13.95;11.23;;;24.30;99.90;;;;;;5029010;28;20204;-68
2023/08/19 09:14:42;;;;;;;19.38;12.07;;;24.30;99.90;;;;;;5031134;28;20379;-68
2023/08/19 09:17:10;;;;;;;15.48;10.90;;;24.40;99.90;;;;;;5032383;28;20203;-69
2023/08/19 09:19:38;;;;;;;12.20;10.85;;;24.40;99.90;;;;;;5013790;28;20279;-68
2023/08/19 09:22:20;;;;;;;13.15;11.18;;;24.40;99.90;;;;;;5039464;28;20198;-68
2023/08/19 09:24:47;;;;;;;17.80;11.93;;;24.40;99.90;;;;;;5023548;28;21872;-68
2023/08/19 09:27:18;;;;;;;12.98;11.65;;;24.50;99.90;;;;;;5035831;22;20887;-68
2023/08/19 09:29:49;;;;;;;12.80;11.02;;;24.50;99.90;;;;;;5051925;28;20299;-69
2023/08/19 09:32:16;;;;;;;13.93;11.20;;;24.60;99.90;;;;;;5038314;28;20197;-69
2023/08/19 09:34:43;;;;;;;11.93;10.27;;;24.60;99.90;;;;;;5046541;28;20208;-68
2023/08/19 09:37:11;;;;;;;15.07;10.82;;;24.70;99.90;;;;;;5047332;28;20691;-68
2023/08/19 09:39:39;;;;;;;17.05;11.02;;;24.70;99.90;;;;;;5047582;28;20675;-68
2023/08/19 09:42:09;;;;;;;16.20;11.38;;;24.70;99.90;;;;;;5048193;28;20215;-68
2023/08/19 09:44:40;;;;;;;11.52;10.32;;;24.70;99.90;;;;;;5046527;28;22579;-68
2023/08/19 09:47:06;;;;;;;15.10;11.13;;;24.70;99.90;;;;;;5052652;28;20212;-69
2023/08/19 09:49:37;;;;;;;11.82;10.65;;;24.70;99.90;;;;;;5019840;28;20286;-69
2023/08/19 09:52:04;;;;;;;11.77;10.55;;;24.70;99.90;;;;;;5057853;28;20207;-68
2023/08/19 09:54:31;;;;;;;19.45;10.43;;;24.80;99.90;;;;;;5035925;28;20224;-69
2023/08/19 09:56:59;;;;;;;12.85;10.98;;;24.80;99.90;;;;;;5055217;28;20192;-68
2023/08/19 09:59:27;;;;;;;13.77;10.57;;;24.70;99.90;;;;;;5042577;28;20216;-68
2023/08/19 10:01:54;;;;;;;11.57;10.32;;;24.80;99.90;;;;;;5048951;28;20236;-68
2023/08/19 10:04:21;;;;;;;11.68;10.48;;;24.90;99.90;;;;;;5014890;28;20228;-68
2023/08/19 10:06:51;;;;;;;12.10;10.55;;;25.00;99.90;;;;;;5063674;22;20718;-69
2023/08/19 10:09:24;;;;;;;14.82;10.85;;;25.00;99.90;;;;;;5050300;28;20720;-69
2023/08/19 10:11:54;;;;;;;11.20;10.07;;;25.00;99.90;;;;;;5055793;28;21271;-69
2023/08/19 10:14:30;;;;;;;12.95;9.60;;;25.00;99.90;;;;;;5047212;28;20227;-69
2023/08/19 10:17:00;;;;;;;12.23;10.32;;;25.10;99.90;;;;;;5051224;28;20208;-69
2023/08/19 10:19:29;;;;;;;16.08;10.48;;;25.10;99.90;;;;;;5014483;28;20484;-69
2023/08/19 10:21:59;;;;;;;10.75;9.65;;;25.20;99.90;;;;;;5052749;28;20197;-69
2023/08/19 10:24:26;;;;;;;11.88;10.68;;;25.10;99.90;;;;;;5055716;28;20300;-68
2023/08/19 10:26:53;;;;;;;11.90;10.25;;;25.20;99.90;;;;;;5045320;28;20208;-68
2023/08/19 10:29:22;;;;;;;11.98;10.50;;;25.40;99.90;;;;;;5051278;28;20211;-68
2023/08/19 10:31:49;;;;;;;11.07;9.82;;;25.30;99.90;;;;;;5050407;28;20235;-68
2023/08/19 10:34:25;;;;;;;12.85;9.63;;;25.30;99.90;;;;;;5022062;28;20224;-69
2023/08/19 10:37:06;;;;;;;11.48;10.27;;;25.30;99.90;;;;;;5056797;28;20200;-69
2023/08/19 10:39:33;;;;;;;11.32;9.23;;;25.30;99.90;;;;;;5055340;28;20200;-68
2023/08/19 10:42:00;;;;;;;11.35;9.60;;;25.30;99.90;;;;;;5044681;28;20244;-68
2023/08/19 10:44:31;;;;;;;14.90;10.23;;;25.30;99.90;;;;;;5040865;28;20614;-69
2023/08/19 10:47:09;;;;;;;11.38;9.13;;;25.30;99.90;;;;;;5049618;28;20260;-68
2023/08/19 10:49:36;;;;;;;13.35;9.73;;;25.20;99.90;;;;;;5018074;28;20399;-69
2023/08/19 10:52:05;;;;;;;13.10;9.32;;;25.20;99.90;;;;;;5050833;28;20192;-69
2023/08/19 10:54:35;;;;;;;12.05;9.43;;;25.20;99.90;;;;;;5055275;28;20331;-69
2023/08/19 10:57:12;;;;;;;10.02;8.95;;;25.20;99.90;;;;;;5048194;28;20200;-69
2023/08/19 10:59:42;;;;;;;13.77;9.75;;;25.20;99.90;;;;;;5058176;28;20425;-68
2023/08/19 11:02:11;;;;;;;11.80;10.00;;;25.20;99.90;;;;;;5052864;28;20205;-69
2023/08/19 11:04:41;;;;;;;10.48;9.07;;;25.20;99.90;;;;;;5051423;28;20231;-69
2023/08/19 11:07:08;;;;;;;11.07;9.73;;;25.20;99.90;;;;;;5024614;28;20606;-68
2023/08/19 11:09:36;;;;;;;11.43;9.10;;;25.20;99.90;;;;;;5062628;28;20715;-69
2023/08/19 11:12:03;;;;;;;10.25;9.25;;;25.20;99.90;;;;;;5066247;28;20200;-69
2023/08/19 11:14:30;;;;;;;10.65;9.55;;;25.20;99.90;;;;;;5051009;28;20446;-69
2023/08/19 11:16:58;;;;;;;12.30;9.73;;;25.20;99.90;;;;;;5055468;28;20204;-69
2023/08/19 11:19:26;;;;;;;9.73;8.73;;;25.30;99.90;;;;;;5043996;28;20327;-68
2023/08/19 11:21:53;;;;;;;12.02;9.90;;;25.30;99.90;;;;;;5022608;28;20216;-68
2023/08/19 11:24:19;;;;;;;10.23;9.20;;;25.30;99.90;;;;;;5065885;28;20573;-68
2023/08/19 11:26:48;;;;;;;11.80;9.23;;;25.30;99.90;;;;;;5059030;28;20207;-68
2023/08/19 11:29:15;;;;;;;10.43;9.40;;;25.30;99.90;;;;;;5050908;28;20709;-69
2023/08/19 11:31:43;;;;;;;11.82;10.57;;;25.30;99.90;;;;;;5048933;28;20843;-68
2023/08/19 11:34:13;;;;;;;10.75;9.35;;;25.20;99.90;;;;;;5046393;28;20361;-69
2023/08/19 11:36:43;;;;;;;11.65;9.48;;;25.20;99.90;;;;;;5058744;28;20382;-68
2023/08/19 11:39:10;;;;;;;10.70;9.68;;;25.20;99.90;;;;;;5014110;28;20227;-68
2023/08/19 11:41:37;;;;;;;11.43;9.65;;;25.30;99.90;;;;;;5053731;28;20222;-68
2023/08/19 11:44:06;;;;;;;12.93;9.10;;;25.40;99.90;;;;;;5051257;28;20197;-68
2023/08/19 11:46:34;;;;;;;12.10;10.10;;;25.30;99.90;;;;;;5043645;28;20196;-68
2023/08/19 11:49:06;;;;;;;11.20;10.10;;;25.30;99.90;;;;;;5043771;28;20206;-68
2023/08/19 11:51:36;;;;;;;14.07;9.20;;;25.30;99.90;;;;;;5043518;28;20223;-69
2023/08/19 11:54:06;;;;;;;13.20;9.25;;;25.20;99.90;;;;;;5018120;28;20228;-69
2023/08/19 11:56:46;;;;;;;10.48;9.48;;;25.20;99.90;;;;;;5054100;28;20305;-69
2023/08/19 11:59:12;;;;;;;10.82;9.52;;;25.20;99.90;;;;;;5051753;28;20203;-68
2023/08/19 12:01:39;;;;;;;12.18;9.45;;;25.20;99.90;;;;;;5035378;28;20495;-68
2023/08/19 12:04:11;;;;;;;11.05;9.95;;;25.10;99.90;;;;;;5040617;28;20204;-68
2023/08/19 12:06:39;;;;;;;10.95;9.27;;;25.10;99.90;;;;;;5037034;28;20862;-69
2023/08/19 12:09:06;;;;;;;11.65;10.25;;;;;;;;;;5022575;28;20207;-68
2023/08/19 12:11:35;;;;;;;10.48;9.48;;;25.10;99.90;;;;;;5050555;28;20449;-67
2023/08/19 12:14:02;;;;;;;14.68;10.70;;;25.10;99.90;;;;;;5061923;28;20705;-67
2023/08/19 12:16:29;;;;;;;13.00;10.05;;;25.10;99.90;;;;;;5054996;28;20196;-68
2023/08/19 12:18:58;;;;;;;14.00;9.40;;;25.00;99.90;;;;;;5063608;28;20728;-67
2023/08/19 12:21:25;;;;;;;13.32;10.00;;;25.00;99.90;;;;;;5063625;28;20197;-67
2023/08/19 12:23:53;;;;;;;10.63;9.52;;;27.10;99.90;;;;;;5061897;28;20200;-67
2023/08/19 12:26:20;;;;;;;11.57;10.27;;;25.00;99.90;;;;;;5022647;28;21047;-68
2023/08/19 12:28:48;;;;;;;12.00;10.23;;;25.00;99.90;;;;;;5064766;28;20203;-67
2023/08/19 12:31:15;;;;;;;12.35;9.63;;;25.10;99.90;;;;;;5053446;28;20218;-67
2023/08/19 12:33:41;;;;;;;12.55;9.88;;;25.00;99.90;;;;;;5062900;28;20435;-67